createdAt,value
2023-05-13T00:00:38.269Z,2.13
2023-05-13T00:03:04.973Z,1.77
2023-05-13T00:05:31.528Z,1.70
2023-05-13T00:08:01.925Z,1.50
2023-05-13T00:10:28.639Z,2.10
2023-05-13T00:12:55.099Z,2.27
2023-05-13T00:15:21.660Z,2.03
2023-05-13T00:17:48.129Z,1.70
2023-05-13T00:20:14.694Z,2.40
2023-05-13T00:22:41.369Z,1.53
2023-05-13T00:25:08.419Z,2.10
2023-05-13T00:27:35.292Z,2.27
2023-05-13T00:30:01.882Z,2.20
2023-05-13T00:32:28.409Z,1.93
2023-05-13T00:34:56.237Z,1.60
2023-05-13T00:37:22.769Z,1.63
2023-05-13T00:39:49.248Z,1.70
2023-05-13T00:42:15.765Z,2.00
2023-05-13T00:44:42.365Z,1.47
2023-05-13T00:47:11.080Z,2.27
2023-05-13T00:49:37.903Z,2.00
2023-05-13T00:52:04.716Z,1.90
2023-05-13T00:54:31.269Z,1.70
2023-05-13T00:56:58.358Z,2.30
2023-05-13T00:59:26.764Z,2.00
2023-05-13T01:02:03.851Z,1.60
2023-05-13T01:05:00.036Z,1.70
2023-05-13T01:07:35.662Z,3.23
2023-05-13T01:10:13.957Z,1.80
2023-05-13T01:12:41.772Z,2.07
2023-05-13T01:15:10.816Z,1.43
2023-05-13T01:17:44.927Z,2.23
2023-05-13T01:20:11.705Z,2.20
2023-05-13T01:22:38.379Z,1.70
2023-05-13T01:25:06.075Z,1.40
2023-05-13T01:27:32.676Z,1.70
2023-05-13T01:30:02.424Z,2.17
2023-05-13T01:32:31.751Z,1.40
2023-05-13T01:34:58.609Z,2.50
2023-05-13T01:37:25.579Z,1.50
2023-05-13T01:39:52.346Z,1.40
2023-05-13T01:42:18.972Z,2.60
2023-05-13T01:44:45.503Z,1.47
2023-05-13T01:47:12.144Z,2.30
2023-05-13T01:49:38.609Z,1.67
2023-05-13T01:52:06.833Z,1.47
2023-05-13T01:54:33.804Z,1.83
2023-05-13T01:57:05.582Z,1.90
2023-05-13T01:59:32.061Z,1.90
2023-05-13T02:01:59.028Z,3.70
2023-05-13T02:04:27.287Z,1.70
2023-05-13T02:06:53.795Z,3.27
2023-05-13T02:09:20.542Z,1.47
2023-05-13T02:11:47.122Z,1.70
2023-05-13T02:14:13.732Z,1.70
2023-05-13T02:16:40.483Z,1.83
2023-05-13T02:19:07.353Z,2.00
2023-05-13T02:21:34.109Z,1.87
2023-05-13T02:24:00.594Z,1.77
2023-05-13T02:26:28.636Z,1.90
2023-05-13T02:28:55.674Z,2.07
2023-05-13T02:31:22.226Z,2.00
2023-05-13T02:33:48.772Z,2.07
2023-05-13T02:36:16.031Z,3.10
2023-05-13T02:38:42.521Z,2.07
2023-05-13T02:41:09.825Z,2.10
2023-05-13T02:43:36.313Z,1.97
2023-05-13T02:46:05.121Z,1.97
2023-05-13T02:48:33.074Z,2.07
2023-05-13T02:51:00.891Z,1.93
2023-05-13T02:53:28.068Z,1.90
2023-05-13T02:55:59.329Z,1.73
2023-05-13T02:58:26.397Z,1.37
2023-05-13T03:00:53.455Z,2.20
2023-05-13T03:03:23.032Z,1.90
2023-05-13T03:05:49.555Z,1.90
2023-05-13T03:08:16.016Z,1.50
2023-05-13T03:10:42.498Z,1.53
2023-05-13T03:13:09.000Z,1.60
2023-05-13T03:15:35.457Z,1.60
2023-05-13T03:18:02.089Z,1.90
2023-05-13T03:20:28.844Z,1.60
2023-05-13T03:22:55.400Z,1.57
2023-05-13T03:25:21.975Z,1.40
2023-05-13T03:27:53.923Z,1.50
2023-05-13T03:30:22.674Z,1.47
2023-05-13T03:33:00.516Z,1.90
2023-05-13T03:35:27.106Z,1.60
2023-05-13T03:37:53.649Z,1.33
2023-05-13T03:40:20.527Z,1.20
2023-05-13T03:42:56.978Z,1.23
2023-05-13T03:45:24.225Z,1.10
2023-05-13T03:47:53.508Z,1.20
2023-05-13T03:50:22.510Z,2.67
2023-05-13T03:52:49.172Z,1.50
2023-05-13T03:55:17.396Z,1.63
2023-05-13T03:57:47.760Z,1.50
2023-05-13T04:00:16.508Z,1.60
2023-05-13T04:02:43.298Z,1.90
2023-05-13T04:05:12.237Z,1.40
2023-05-13T04:07:38.745Z,1.73
2023-05-13T04:10:05.869Z,1.83
2023-05-13T04:12:33.379Z,1.80
2023-05-13T04:15:00.620Z,1.70
2023-05-13T04:17:27.819Z,1.80
2023-05-13T04:19:54.760Z,1.70
2023-05-13T04:22:21.871Z,1.93
2023-05-13T04:24:52.007Z,1.73
2023-05-13T04:27:18.625Z,1.83
2023-05-13T04:29:46.709Z,1.97
2023-05-13T04:32:16.180Z,1.40
2023-05-13T04:34:43.252Z,1.87
2023-05-13T04:37:09.685Z,1.77
2023-05-13T04:39:36.251Z,1.97
2023-05-13T04:42:02.986Z,1.80
2023-05-13T04:44:31.028Z,2.00
2023-05-13T04:46:58.050Z,1.53
2023-05-13T04:49:24.544Z,1.87
2023-05-13T04:51:51.637Z,2.00
2023-05-13T04:54:18.886Z,1.70
2023-05-13T04:56:45.444Z,1.90
2023-05-13T04:59:11.998Z,1.90
2023-05-13T05:01:40.209Z,1.80
2023-05-13T05:04:06.799Z,1.57
2023-05-13T05:06:35.279Z,2.10
2023-05-13T05:09:02.208Z,1.90
2023-05-13T05:11:29.315Z,1.90
2023-05-13T05:13:56.497Z,2.00
2023-05-13T05:16:23.938Z,2.90
2023-05-13T05:18:50.560Z,1.80
2023-05-13T05:21:18.584Z,1.60
2023-05-13T05:23:45.070Z,2.00
2023-05-13T05:26:12.672Z,2.23
2023-05-13T05:28:43.025Z,1.70
2023-05-13T05:31:09.856Z,1.57
2023-05-13T05:33:36.821Z,1.70
2023-05-13T05:36:03.669Z,2.20
2023-05-13T05:38:30.322Z,2.20
2023-05-13T05:40:58.440Z,2.00
2023-05-13T05:43:25.328Z,1.03
2023-05-13T05:45:52.341Z,1.23
2023-05-13T05:48:20.179Z,1.40
2023-05-13T05:50:47.337Z,1.20
2023-05-13T05:53:18.212Z,1.03
2023-05-13T05:55:45.276Z,1.23
2023-05-13T05:58:15.087Z,1.07
2023-05-13T06:00:41.970Z,1.40
2023-05-13T06:03:08.659Z,1.20
2023-05-13T06:05:35.387Z,1.23
2023-05-13T06:08:01.940Z,1.30
2023-05-13T06:10:29.884Z,1.40
2023-05-13T06:12:56.573Z,1.23
2023-05-13T06:15:23.152Z,1.53
2023-05-13T06:17:49.621Z,1.13
2023-05-13T06:20:16.181Z,1.00
2023-05-13T06:22:42.668Z,1.20
2023-05-13T06:25:09.359Z,0.90
2023-05-13T06:27:36.373Z,0.93
2023-05-13T06:30:03.086Z,0.87
2023-05-13T06:32:29.549Z,1.40
2023-05-13T06:34:56.173Z,1.00
2023-05-13T06:37:23.306Z,0.97
2023-05-13T06:39:50.264Z,0.90
2023-05-13T06:42:17.329Z,0.90
2023-05-13T06:44:45.728Z,0.70
2023-05-13T06:47:15.771Z,0.80
2023-05-13T06:49:43.324Z,0.93
2023-05-13T06:52:10.409Z,0.90
2023-05-13T06:54:36.923Z,0.73
2023-05-13T06:57:05.684Z,0.70
2023-05-13T06:59:32.250Z,0.60
2023-05-13T07:01:58.813Z,0.50
2023-05-13T07:04:25.311Z,0.50
2023-05-13T07:06:51.767Z,0.37
2023-05-13T07:09:18.211Z,0.40
2023-05-13T07:11:44.662Z,0.50
2023-05-13T07:14:11.307Z,0.90
2023-05-13T07:16:37.824Z,0.57
2023-05-13T07:19:04.384Z,0.43
2023-05-13T07:21:30.937Z,0.53
2023-05-13T07:23:57.369Z,0.50
2023-05-13T07:26:23.871Z,0.50
2023-05-13T07:28:50.367Z,0.30
2023-05-13T07:31:16.937Z,0.40
2023-05-13T07:33:43.398Z,0.30
2023-05-13T07:36:09.825Z,0.50
2023-05-13T07:38:36.281Z,0.50
2023-05-13T07:41:02.730Z,0.30
2023-05-13T07:43:29.204Z,0.50
2023-05-13T07:45:55.695Z,0.57
2023-05-13T07:48:24.483Z,0.50
2023-05-13T07:50:50.997Z,0.30
2023-05-13T07:53:19.087Z,0.40
2023-05-13T07:55:46.302Z,0.30
2023-05-13T07:58:13.148Z,0.50
2023-05-13T08:00:39.712Z,0.50
2023-05-13T08:03:06.408Z,0.50
2023-05-13T08:05:32.936Z,0.43
2023-05-13T08:07:59.366Z,0.83
2023-05-13T08:10:25.828Z,0.50
2023-05-13T08:12:57.460Z,0.60
2023-05-13T08:15:25.227Z,0.40
2023-05-13T08:17:53.699Z,0.40
2023-05-13T08:20:20.840Z,0.57
2023-05-13T08:22:47.724Z,0.67
2023-05-13T08:25:16.008Z,0.70
2023-05-13T08:27:42.613Z,0.30
2023-05-13T08:30:09.311Z,0.40
2023-05-13T08:32:35.800Z,0.57
2023-05-13T08:35:02.296Z,0.40
2023-05-13T08:37:28.739Z,0.40
2023-05-13T08:39:56.517Z,0.50
2023-05-13T08:42:23.877Z,0.70
2023-05-13T08:44:52.077Z,0.60
2023-05-13T08:47:33.769Z,0.53
2023-05-13T08:50:02.291Z,0.50
2023-05-13T08:52:28.742Z,0.47
2023-05-13T08:54:56.760Z,0.67
2023-05-13T08:57:23.317Z,0.60
2023-05-13T08:59:49.819Z,0.47
2023-05-13T09:02:16.267Z,0.50
2023-05-13T09:04:43.441Z,0.40
2023-05-13T09:07:10.668Z,0.60
2023-05-13T09:09:37.373Z,0.70
2023-05-13T09:12:04.385Z,0.60
2023-05-13T09:14:34.094Z,0.60
2023-05-13T09:17:04.171Z,0.70
2023-05-13T09:19:31.012Z,0.40
2023-05-13T09:21:57.621Z,0.93
2023-05-13T09:24:24.224Z,0.50
2023-05-13T09:26:51.618Z,0.70
2023-05-13T09:29:26.453Z,0.70
2023-05-13T09:31:55.197Z,0.40
2023-05-13T09:34:39.984Z,0.50
2023-05-13T09:37:08.202Z,0.57
2023-05-13T09:39:41.874Z,0.50
2023-05-13T09:42:18.872Z,0.80
2023-05-13T09:44:46.024Z,0.73
2023-05-13T09:47:16.307Z,0.63
2023-05-13T09:49:43.792Z,0.70
2023-05-13T09:52:11.680Z,0.80
2023-05-13T09:54:38.662Z,0.70
2023-05-13T09:57:05.805Z,0.60
2023-05-13T09:59:35.212Z,1.43
2023-05-13T10:02:04.817Z,0.80
2023-05-13T10:04:31.533Z,0.50
2023-05-13T10:06:58.988Z,0.57
2023-05-13T10:09:27.584Z,0.80
2023-05-13T10:11:54.705Z,0.60
2023-05-13T10:14:21.264Z,0.90
2023-05-13T10:16:48.247Z,0.73
2023-05-13T10:19:14.990Z,0.67
2023-05-13T10:21:41.994Z,0.87
2023-05-13T10:24:08.534Z,0.80
2023-05-13T10:26:35.268Z,0.80
2023-05-13T10:29:02.491Z,0.80
2023-05-13T10:31:29.672Z,0.90
2023-05-13T10:33:56.187Z,1.10
2023-05-13T10:36:49.546Z,0.73
2023-05-13T10:39:43.830Z,0.80
2023-05-13T10:42:32.071Z,1.20
2023-05-13T10:44:58.792Z,1.03
2023-05-13T10:47:25.311Z,1.30
2023-05-13T10:49:52.766Z,1.00
2023-05-13T10:52:19.685Z,0.70
2023-05-13T10:55:00.319Z,1.07
2023-05-13T10:57:36.893Z,1.03
2023-05-13T11:00:14.330Z,0.80
2023-05-13T11:02:40.924Z,1.07
2023-05-13T11:05:09.016Z,0.70
2023-05-13T11:07:41.874Z,0.87
2023-05-13T11:10:25.701Z,1.00
2023-05-13T11:13:13.951Z,1.00
2023-05-13T11:15:45.012Z,0.77
2023-05-13T11:18:15.123Z,1.00
2023-05-13T11:20:52.230Z,0.80
2023-05-13T11:23:22.642Z,1.10
2023-05-13T11:26:12.569Z,0.90
2023-05-13T11:29:05.185Z,1.10
2023-05-13T11:31:59.197Z,1.00
2023-05-13T11:34:26.786Z,1.37
2023-05-13T11:37:13.529Z,0.90
2023-05-13T11:39:41.636Z,1.00
2023-05-13T11:42:11.568Z,0.97
2023-05-13T11:44:45.734Z,1.07
2023-05-13T11:47:12.270Z,1.10
2023-05-13T11:49:43.459Z,1.30
2023-05-13T11:52:11.446Z,1.03
2023-05-13T11:54:49.085Z,1.40
2023-05-13T11:57:27.069Z,1.20
2023-05-13T12:00:01.350Z,1.20
2023-05-13T12:02:37.359Z,1.20
2023-05-13T12:05:05.945Z,1.47
2023-05-13T12:07:33.175Z,1.27
2023-05-13T12:10:01.124Z,1.60
2023-05-13T12:12:29.057Z,1.50
2023-05-13T12:14:58.620Z,1.60
2023-05-13T12:17:25.575Z,1.27
2023-05-13T12:20:17.673Z,1.33
2023-05-13T12:22:44.038Z,1.30
2023-05-13T12:25:36.457Z,1.70
2023-05-13T12:28:13.807Z,1.87
2023-05-13T12:30:42.198Z,1.70
2023-05-13T12:33:22.423Z,1.80
2023-05-13T12:35:51.712Z,2.10
2023-05-13T12:38:20.642Z,1.93
2023-05-13T12:40:48.816Z,1.60
2023-05-13T12:43:17.102Z,1.83
2023-05-13T12:45:45.385Z,1.83
2023-05-13T12:48:12.598Z,2.37
2023-05-13T12:50:39.082Z,2.07
2023-05-13T12:53:06.038Z,2.40
2023-05-13T12:55:32.835Z,2.70
2023-05-13T12:58:01.425Z,1.97
2023-05-13T13:00:28.015Z,2.03
2023-05-13T13:02:54.598Z,2.00
2023-05-13T13:05:22.091Z,1.60
2023-05-13T13:07:52.182Z,2.40
2023-05-13T13:10:18.901Z,2.13
2023-05-13T13:12:45.401Z,2.27
2023-05-13T13:15:12.309Z,2.43
2023-05-13T13:17:38.876Z,2.20
2023-05-13T13:20:07.099Z,2.83
2023-05-13T13:22:34.748Z,2.80
2023-05-13T13:25:01.224Z,3.20
2023-05-13T13:27:27.974Z,2.70
2023-05-13T13:29:54.641Z,2.73
2023-05-13T13:32:21.270Z,2.07
2023-05-13T13:34:48.062Z,2.70
2023-05-13T13:37:14.796Z,2.53
2023-05-13T13:39:41.411Z,2.73
2023-05-13T13:42:07.897Z,3.23
2023-05-13T13:44:36.613Z,3.00
2023-05-13T13:47:03.088Z,2.73
2023-05-13T13:49:29.519Z,3.40
2023-05-13T13:51:56.021Z,3.60
2023-05-13T13:54:22.509Z,2.87
2023-05-13T13:56:49.011Z,3.00
2023-05-13T13:59:15.441Z,3.20
2023-05-13T14:01:43.894Z,3.50
2023-05-13T14:04:14.943Z,3.40
2023-05-13T14:06:42.273Z,3.30
2023-05-13T14:09:10.413Z,3.70
2023-05-13T14:11:37.175Z,3.20
2023-05-13T14:14:03.644Z,3.23
2023-05-13T14:16:30.247Z,3.10
2023-05-13T14:18:56.901Z,4.17
2023-05-13T14:21:23.454Z,4.40
2023-05-13T14:23:49.935Z,4.07
2023-05-13T14:26:16.359Z,4.03
2023-05-13T14:28:43.107Z,3.83
2023-05-13T14:31:09.563Z,4.20
2023-05-13T14:33:36.197Z,4.00
2023-05-13T14:36:02.809Z,4.43
2023-05-13T14:38:29.350Z,4.03
2023-05-13T14:40:56.037Z,4.00
2023-05-13T14:43:23.313Z,4.87
2023-05-13T14:45:49.875Z,3.87
2023-05-13T14:48:16.501Z,4.07
2023-05-13T14:50:44.912Z,4.57
2023-05-13T14:53:11.500Z,4.20
2023-05-13T14:55:37.930Z,4.03
2023-05-13T14:58:04.458Z,4.27
2023-05-13T15:00:31.902Z,3.80
2023-05-13T15:02:58.528Z,3.80
2023-05-13T15:05:26.474Z,4.40
2023-05-13T15:07:52.957Z,3.83
2023-05-13T15:10:19.608Z,3.73
2023-05-13T15:12:46.206Z,4.50
2023-05-13T15:15:12.740Z,4.40
2023-05-13T15:17:39.325Z,4.40
2023-05-13T15:20:06.506Z,4.70
2023-05-13T15:22:34.181Z,4.30
2023-05-13T15:25:00.939Z,5.60
2023-05-13T15:27:28.295Z,4.60
2023-05-13T15:29:54.912Z,4.67
2023-05-13T15:32:21.361Z,4.70
2023-05-13T15:34:47.839Z,4.87
2023-05-13T15:37:14.362Z,5.20
2023-05-13T15:39:40.984Z,4.73
2023-05-13T15:42:07.572Z,5.07
2023-05-13T15:44:34.058Z,5.90
2023-05-13T15:47:00.727Z,5.37
2023-05-13T15:49:27.401Z,4.97
2023-05-13T15:51:55.908Z,5.70
2023-05-13T15:54:22.373Z,5.60
2023-05-13T15:56:48.877Z,4.87
2023-05-13T15:59:15.420Z,4.70
2023-05-13T16:01:42.037Z,5.33
2023-05-13T16:04:08.599Z,5.70
2023-05-13T16:06:35.209Z,5.43
2023-05-13T16:09:01.982Z,5.47
2023-05-13T16:11:28.835Z,4.60
2023-05-13T16:13:55.317Z,4.50
2023-05-13T16:16:22.020Z,4.70
2023-05-13T16:18:48.920Z,4.63
2023-05-13T16:21:15.568Z,4.70
2023-05-13T16:23:42.022Z,3.97
2023-05-13T16:26:08.522Z,4.87
2023-05-13T16:28:35.204Z,5.40
2023-05-13T16:31:01.760Z,4.73
2023-05-13T16:33:28.210Z,4.40
2023-05-13T16:35:54.716Z,4.60
2023-05-13T16:38:21.155Z,4.87
2023-05-13T16:40:47.780Z,5.00
2023-05-13T16:43:14.319Z,5.37
2023-05-13T16:45:40.848Z,4.27
2023-05-13T16:48:07.396Z,5.40
2023-05-13T16:50:33.926Z,3.90
2023-05-13T16:53:00.440Z,4.43
2023-05-13T16:55:26.902Z,4.00
2023-05-13T16:57:55.941Z,4.87
2023-05-13T17:00:22.828Z,4.30
2023-05-13T17:02:49.472Z,4.00
2023-05-13T17:05:16.238Z,5.00
2023-05-13T17:07:42.731Z,3.97
2023-05-13T17:10:09.350Z,4.93
2023-05-13T17:12:35.784Z,3.90
2023-05-13T17:15:02.364Z,4.43
2023-05-13T17:17:28.835Z,4.10
2023-05-13T17:19:55.557Z,4.30
2023-05-13T17:22:22.039Z,4.70
2023-05-13T17:24:48.481Z,5.17
2023-05-13T17:27:14.955Z,4.30
2023-05-13T17:29:41.437Z,3.90
2023-05-13T17:32:08.034Z,3.50
2023-05-13T17:34:34.565Z,4.20
2023-05-13T17:37:00.988Z,4.30
2023-05-13T17:39:27.474Z,3.93
2023-05-13T17:41:54.064Z,4.20
2023-05-13T17:44:20.631Z,3.90
2023-05-13T17:46:47.091Z,4.63
2023-05-13T17:49:13.696Z,3.80
2023-05-13T17:51:41.833Z,4.53
2023-05-13T17:54:08.278Z,4.13
2023-05-13T17:56:34.756Z,4.37
2023-05-13T17:59:01.185Z,3.83
2023-05-13T18:01:27.799Z,4.53
2023-05-13T18:03:54.309Z,4.57
2023-05-13T18:06:20.770Z,3.67
2023-05-13T18:08:47.252Z,4.40
2023-05-13T18:11:13.693Z,4.23
2023-05-13T18:13:40.171Z,4.40
2023-05-13T18:16:09.032Z,3.90
2023-05-13T18:18:35.640Z,4.30
2023-05-13T18:21:02.138Z,4.67
2023-05-13T18:23:28.651Z,4.37
2023-05-13T18:25:56.324Z,4.80
2023-05-13T18:28:23.162Z,4.47
2023-05-13T18:30:49.743Z,4.20
2023-05-13T18:33:16.220Z,5.23
2023-05-13T18:35:42.799Z,4.90
2023-05-13T18:38:09.269Z,4.60
2023-05-13T18:40:35.716Z,4.30
2023-05-13T18:43:02.558Z,4.00
2023-05-13T18:45:29.113Z,4.73
2023-05-13T18:47:55.703Z,4.20
2023-05-13T18:50:22.366Z,4.47
2023-05-13T18:52:49.124Z,4.47
2023-05-13T18:55:16.337Z,4.33
2023-05-13T18:57:42.785Z,5.30
2023-05-13T19:00:09.507Z,4.33
2023-05-13T19:02:36.333Z,3.83
2023-05-13T19:05:02.977Z,5.00
2023-05-13T19:07:29.409Z,4.97
2023-05-13T19:09:56.041Z,4.53
2023-05-13T19:12:22.521Z,4.70
2023-05-13T19:14:48.977Z,4.50
2023-05-13T19:17:15.683Z,5.43
2023-05-13T19:19:43.065Z,5.70
2023-05-13T19:22:09.561Z,6.07
2023-05-13T19:24:36.014Z,4.73
2023-05-13T19:27:02.729Z,5.03
2023-05-13T19:29:29.281Z,4.97
2023-05-13T19:31:55.716Z,5.43
2023-05-13T19:34:22.237Z,4.90
2023-05-13T19:36:48.753Z,4.80
2023-05-13T19:39:15.320Z,5.40
2023-05-13T19:41:41.783Z,5.33
2023-05-13T19:44:08.273Z,4.50
2023-05-13T19:46:35.496Z,5.40
2023-05-13T19:49:02.444Z,4.93
2023-05-13T19:51:29.567Z,6.10
2023-05-13T19:53:56.706Z,5.00
2023-05-13T19:56:23.243Z,5.17
2023-05-13T19:58:49.779Z,5.00
2023-05-13T20:01:16.274Z,5.17
2023-05-13T20:03:42.922Z,5.37
2023-05-13T20:06:09.585Z,6.00
2023-05-13T20:08:36.133Z,5.23
2023-05-13T20:11:02.633Z,6.00
2023-05-13T20:13:29.146Z,5.20
2023-05-13T20:15:55.658Z,5.83
2023-05-13T20:18:22.166Z,5.20
2023-05-13T20:20:48.705Z,5.50
2023-05-13T20:23:15.257Z,5.43
2023-05-13T20:25:41.787Z,5.00
2023-05-13T20:28:08.239Z,5.37
2023-05-13T20:30:34.705Z,5.53
2023-05-13T20:33:01.182Z,5.97
2023-05-13T20:35:27.649Z,5.00
2023-05-13T20:37:54.399Z,6.10
2023-05-13T20:40:21.477Z,6.13
2023-05-13T20:42:48.200Z,6.63
2023-05-13T20:45:14.639Z,5.37
2023-05-13T20:47:41.476Z,5.90
2023-05-13T20:50:08.413Z,5.23
2023-05-13T20:52:34.967Z,5.90
2023-05-13T20:55:01.502Z,5.50
2023-05-13T20:57:27.957Z,5.53
2023-05-13T20:59:54.572Z,5.23
2023-05-13T21:02:21.451Z,5.40
2023-05-13T21:04:47.941Z,6.60
2023-05-13T21:07:14.456Z,6.17
2023-05-13T21:09:40.907Z,7.27
2023-05-13T21:12:07.564Z,6.20
2023-05-13T21:14:34.220Z,5.80
2023-05-13T21:17:03.340Z,6.00
2023-05-13T21:19:30.958Z,5.13
2023-05-13T21:21:58.640Z,5.23
2023-05-13T21:24:25.636Z,5.77
2023-05-13T21:26:52.396Z,5.63
2023-05-13T21:29:19.362Z,5.67
2023-05-13T21:31:47.395Z,5.13
2023-05-13T21:34:14.173Z,5.50
2023-05-13T21:36:41.102Z,4.80
2023-05-13T21:39:09.239Z,5.43
2023-05-13T21:41:36.120Z,5.30
2023-05-13T21:44:02.580Z,5.10
2023-05-13T21:46:29.052Z,5.00
2023-05-13T21:48:55.572Z,5.80
2023-05-13T21:51:22.227Z,4.90
2023-05-13T21:53:48.701Z,5.30
2023-05-13T21:56:15.190Z,4.40
2023-05-13T21:58:41.727Z,5.83
2023-05-13T22:01:08.344Z,6.33
2023-05-13T22:03:34.974Z,5.10
2023-05-13T22:06:02.264Z,6.50
2023-05-13T22:08:33.053Z,5.17
2023-05-13T22:11:01.295Z,5.13
2023-05-13T22:13:28.087Z,5.80
2023-05-13T22:15:54.632Z,6.30
2023-05-13T22:18:22.566Z,6.47
2023-05-13T22:20:49.404Z,6.20
2023-05-13T22:23:15.972Z,5.20
2023-05-13T22:25:42.493Z,5.80
2023-05-13T22:28:08.951Z,5.27
2023-05-13T22:30:35.479Z,5.47
2023-05-13T22:33:01.983Z,5.10
2023-05-13T22:35:32.091Z,5.23
2023-05-13T22:37:58.568Z,5.37
2023-05-13T22:40:25.103Z,5.23
2023-05-13T22:42:51.938Z,5.50
2023-05-13T22:45:18.428Z,4.80
2023-05-13T22:47:44.949Z,5.07
2023-05-13T22:50:12.329Z,5.67
2023-05-13T22:52:39.289Z,4.53
2023-05-13T22:55:06.798Z,5.43
2023-05-13T22:57:33.317Z,6.27
2023-05-13T22:59:59.924Z,5.20
2023-05-13T23:02:26.441Z,5.37
2023-05-13T23:04:52.987Z,5.53
2023-05-13T23:07:19.424Z,5.00
2023-05-13T23:09:45.872Z,4.50
2023-05-13T23:12:12.383Z,5.00
2023-05-13T23:14:39.561Z,4.40
2023-05-13T23:17:06.184Z,5.53
2023-05-13T23:19:32.644Z,5.97
2023-05-13T23:21:59.121Z,6.17
2023-05-13T23:24:25.683Z,5.00
2023-05-13T23:26:52.137Z,5.63
2023-05-13T23:29:18.605Z,7.40
2023-05-13T23:31:45.083Z,5.63
2023-05-13T23:34:11.535Z,6.80
2023-05-13T23:36:38.050Z,5.27
2023-05-13T23:39:04.576Z,5.83
2023-05-13T23:41:31.062Z,5.10
2023-05-13T23:43:57.688Z,6.03
2023-05-13T23:46:24.331Z,5.10
2023-05-13T23:48:51.019Z,5.77
2023-05-13T23:51:17.504Z,5.80
2023-05-13T23:53:43.981Z,5.27
2023-05-13T23:56:10.508Z,5.20
2023-05-13T23:58:37.013Z,5.40
